Time;durP1;ratioP1;P1;durP2;ratioP2;P2;SDS_P1;SDS_P2;PMS_P1;PMS_P2;Temp;Humidity;BMP_temperature;BMP_pressure;BME280_temperature;BME280_humidity;BME280_pressure;Samples;Min_cycle;Max_cycle;Signal;HPM_P1;HPM_P2
2023/11/05 00:01:37;;;;;;;;;;;;;;;5.63;100.00;95763.25;4993712;28;20365;-84
2023/11/05 00:04:04;;;;;;;;;;;;;;;5.58;100.00;95744.41;4975367;28;19925;-82
2023/11/05 00:06:33;;;;;;;;;;;;;;;5.63;100.00;95742.22;4975717;28;19926;-85
2023/11/05 00:08:59;;;;;;;;;;;;;;;5.53;100.00;95730.84;4976143;28;20305;-84
2023/11/05 00:11:27;;;;;;;;;;;;;;;5.58;100.00;95728.66;4975962;28;19972;-89
2023/11/05 00:13:52;;;;;;;;;;;;;;;5.66;100.00;95724.53;4976543;28;19921;-88
2023/11/05 00:16:20;;;;;;;;;;;;;;;5.59;100.00;95724.25;4977277;28;19941;-93
2023/11/05 08:20:14;;;;;;;;;;;;;;;6.02;100.00;95904.44;4987802;28;19933;-86
2023/11/05 08:22:41;;;;;;;;;;;;;;;6.00;100.00;95914.25;4995157;28;19922;-88
2023/11/05 08:25:08;;;;;;;;;;;;;;;6.00;100.00;95911.63;4994954;28;19925;-87
2023/11/05 08:27:33;;;;;;;;;;;;;;;5.93;100.00;95937.53;4977835;28;20304;-86
2023/11/05 08:30:00;;;;;;;;;;;;;;;5.96;100.00;95941.72;4977376;28;19925;-86
2023/11/05 08:32:28;;;;;;;;;;;;;;;5.90;100.00;95943.06;4995045;28;19926;-87
2023/11/05 08:34:53;;;;;;;;;;;;;;;5.89;100.00;95954.56;4993084;28;20286;-89
2023/11/05 08:37:19;;;;;;;;;;;;;;;5.89;100.00;95965.06;4977109;28;19918;-87
2023/11/05 08:39:44;;;;;;;;;;;;;;;5.83;100.00;95976.91;4977514;28;20349;-86
2023/11/05 08:42:10;;;;;;;;;;;;;;;5.89;100.00;95988.72;4969083;28;19925;-86
2023/11/05 08:44:37;;;;;;;;;;;;;;;5.75;100.00;95975.91;4994805;28;19929;-87
2023/11/05 08:47:02;;;;;;;;;;;;;;;5.77;100.00;95987.09;4977070;28;19969;-87
2023/11/05 08:49:28;;;;;;;;;;;;;;;5.81;100.00;95997.22;4993729;28;19922;-88
2023/11/05 08:51:54;;;;;;;;;;;;;;;5.80;100.00;95998.19;4993731;28;20272;-85
2023/11/05 08:54:21;;;;;;;;;;;;;;;5.85;100.00;95995.16;4994681;28;19924;-92
2023/11/05 08:56:47;;;;;;;;;;;;;;;5.88;100.00;96018.56;4994522;28;20284;-88
2023/11/05 08:59:12;;;;;;;;;;;;;;;5.95;100.00;96022.34;4976738;28;19928;-90
2023/11/05 09:01:37;;;;;;;;;;;;;;;5.93;100.00;96031.31;4994481;28;19928;-89
2023/11/05 09:04:04;;;;;;;;;;;;;;;5.81;100.00;96041.06;4951726;28;20369;-85
2023/11/05 09:06:30;;;;;;;;;;;;;;;5.78;100.00;96050.03;4976713;28;20021;-90
2023/11/05 09:08:55;;;;;;;;;;;;;;;5.84;100.00;96056.56;4983739;28;20004;-87
2023/11/05 09:11:21;;;;;;;;;;;;;;;5.75;100.00;96057.34;4994154;28;19928;-89
2023/11/05 09:13:47;;;;;;;;;;;;;;;5.72;100.00;96068.09;4994408;28;19929;-87
2023/11/05 09:16:12;;;;;;;;;;;;;;;5.71;100.00;96069.91;4993462;28;19918;-87
2023/11/05 09:18:37;;;;;;;;;;;;;;;5.67;100.00;96078.97;4992735;28;19922;-89
2023/11/05 09:21:04;;;;;;;;;;;;;;;5.79;100.00;96085.00;4993854;28;19957;-89
2023/11/05 09:23:29;;;;;;;;;;;;;;;5.73;100.00;96096.03;4993968;28;19922;-90
2023/11/05 09:25:55;;;;;;;;;;;;;;;5.73;100.00;96104.75;4976991;28;19924;-89
2023/11/05 09:28:20;;;;;;;;;;;;;;;5.75;100.00;96112.50;4993898;28;19926;-91
2023/11/05 09:30:48;;;;;;;;;;;;;;;5.71;100.00;96111.91;4976776;28;19980;-94
2023/11/05 09:33:24;;;;;;;;;;;;;;;5.75;100.00;96117.75;4975312;28;20331;-90
2023/11/05 09:35:49;;;;;;;;;;;;;;;5.66;100.00;96131.63;4976694;28;19929;-91
2023/11/05 09:38:14;;;;;;;;;;;;;;;5.73;100.00;96138.88;4976329;28;19945;-88
2023/11/05 09:40:40;;;;;;;;;;;;;;;5.78;100.00;96139.34;4976312;28;19928;-89
2023/11/05 09:43:09;;;;;;;;;;;;;;;5.86;100.00;96151.84;4975959;28;20004;-90
2023/11/05 09:45:35;;;;;;;;;;;;;;;5.88;100.00;96157.00;4976397;28;20327;-88
2023/11/05 09:48:02;;;;;;;;;;;;;;;5.81;100.00;96168.00;4992366;28;19921;-92
2023/11/05 09:50:28;;;;;;;;;;;;;;;5.78;100.00;96172.66;4992608;28;19949;-90
2023/11/05 09:53:04;;;;;;;;;;;;;;;5.86;100.00;96177.31;4975931;28;20015;-90
2023/11/05 09:55:30;;;;;;;;;;;;;;;5.79;100.00;96196.19;4992850;28;19918;-89
2023/11/05 13:52:49;;;;;;;;;;;;;;;6.42;100.00;96789.03;5809543;22;19997;-86
2023/11/05 13:55:15;;;;;;;;;;;;;;;6.41;100.00;96803.94;5000922;28;20018;-93
2023/11/05 13:57:40;;;;;;;;;;;;;;;7.52;100.00;96813.22;4993644;28;19972;-87
2023/11/05 14:00:07;;;;;;;;;;;;;;;6.67;100.00;96825.72;4993910;28;20015;-88
2023/11/05 14:02:32;;;;;;;;;;;;;;;6.59;100.00;96843.88;5012841;28;19991;-90
2023/11/05 14:04:58;;;;;;;;;;;;;;;6.43;100.00;96843.28;5012865;28;19921;-89
2023/11/05 14:07:23;;;;;;;;;;;;;;;6.55;100.00;96858.19;4995833;28;20523;-90
2023/11/05 14:09:48;;;;;;;;;;;;;;;6.41;100.00;96868.88;5011371;28;20415;-89
2023/11/05 14:12:14;;;;;;;;;;;;;;;6.38;100.00;96866.47;5011115;28;19922;-88
2023/11/05 14:14:39;;;;;;;;;;;;;;;6.43;100.00;96888.00;4995426;28;19922;-89
2023/11/05 14:17:06;;;;;;;;;;;;;;;6.28;100.00;96903.09;5012070;28;19913;-86
2023/11/05 14:19:31;;;;;;;;;;;;;;;6.36;100.00;96916.53;4996343;28;19922;-88
2023/11/05 14:21:56;;;;;;;;;;;;;;;6.39;100.00;96920.75;4990457;28;20269;-87
2023/11/05 14:24:22;;;;;;;;;;;;;;;6.26;100.00;96929.50;4993200;28;19972;-89
2023/11/05 14:26:47;;;;;;;;;;;;;;;6.19;100.00;96936.16;4973872;28;19968;-90
2023/11/05 14:29:12;;;;;;;;;;;;;;;6.06;100.00;96967.69;4975802;28;19972;-88
2023/11/05 14:31:38;;;;;;;;;;;;;;;6.21;100.00;96959.69;4992897;28;19917;-87
2023/11/05 14:34:04;;;;;;;;;;;;;;;6.25;100.00;96966.44;4974503;28;19922;-89
2023/11/05 14:36:32;;;;;;;;;;;;;;;6.18;100.00;96966.84;4973797;28;19972;-87
2023/11/05 14:38:57;;;;;;;;;;;;;;;6.17;100.00;96972.22;4975205;28;19922;-87
2023/11/05 14:41:25;;;;;;;;;;;;;;;6.33;100.00;96986.00;4991303;28;19976;-89
2023/11/05 14:43:51;;;;;;;;;;;;;;;6.14;100.00;97001.34;4974310;28;19928;-86
2023/11/05 14:46:16;;;;;;;;;;;;;;;5.97;100.00;97003.38;4991524;28;19921;-85
2023/11/05 14:48:42;;;;;;;;;;;;;;;6.00;100.00;97015.47;4975347;28;20292;-87
2023/11/05 14:51:07;;;;;;;;;;;;;;;6.03;100.00;97031.03;4972842;28;20284;-86
2023/11/05 14:53:33;;;;;;;;;;;;;;;6.04;100.00;97029.25;4972962;28;19972;-87
2023/11/05 14:56:01;;;;;;;;;;;;;;;6.02;100.00;97039.03;4991737;28;19930;-86
2023/11/05 14:58:26;;;;;;;;;;;;;;;6.09;100.00;97035.00;4990507;28;19926;-87
2023/11/05 15:00:52;;;;;;;;;;;;;;;5.83;100.00;97041.06;4986838;28;19937;-87
2023/11/05 15:03:18;;;;;;;;;;;;;;;5.96;100.00;97048.97;4974971;28;20009;-87
2023/11/05 15:05:44;;;;;;;;;;;;;;;5.74;100.00;97048.72;4991340;28;20018;-87
2023/11/05 15:08:09;;;;;;;;;;;;;;;5.82;100.00;97049.91;4972687;28;20391;-86
2023/11/05 15:10:34;;;;;;;;;;;;;;;6.44;100.00;97063.31;4974331;28;19921;-85
2023/11/05 15:13:00;;;;;;;;;;;;;;;6.83;100.00;97075.47;4974736;28;20012;-86
2023/11/05 15:15:25;;;;;;;;;;;;;;;7.09;100.00;97091.19;4974995;28;20364;-85
2023/11/05 15:17:50;;;;;;;;;;;;;;;7.29;100.00;97105.53;4978139;28;19950;-86
2023/11/05 15:20:16;;;;;;;;;;;;;;;7.41;100.00;97109.09;4994947;28;20285;-88
2023/11/05 15:22:43;;;;;;;;;;;;;;;7.54;100.00;97120.41;4977699;28;19917;-87
2023/11/05 15:25:08;;;;;;;;;;;;;;;7.68;100.00;97127.31;4978709;28;20008;-87
2023/11/05 15:27:36;;;;;;;;;;;;;;;7.71;100.00;97132.38;4994940;28;20049;-86
2023/11/05 15:30:05;;;;;;;;;;;;;;;7.81;100.00;97143.09;4993012;28;19918;-88
2023/11/05 15:32:31;;;;;;;;;;;;;;;7.89;100.00;97160.97;4978468;28;19974;-87
2023/11/05 15:34:58;;;;;;;;;;;;;;;7.98;100.00;97171.69;4993699;28;19926;-88
2023/11/05 15:37:29;;;;;;;;;;;;;;;8.05;100.00;97179.97;4976782;28;19968;-88
2023/11/05 15:39:57;;;;;;;;;;;;;;;8.09;100.00;97173.53;4977675;28;19969;-85
2023/11/05 15:42:25;;;;;;;;;;;;;;;8.19;100.00;97185.06;4994883;28;19981;-90
2023/11/05 15:44:50;;;;;;;;;;;;;;;8.22;100.00;97198.97;4976177;28;19918;-90
2023/11/05 15:47:20;;;;;;;;;;;;;;;8.31;100.00;97203.56;4995152;28;20301;-91
2023/11/05 15:49:46;;;;;;;;;;;;;;;8.39;100.00;97217.03;4995004;28;19925;-90
2023/11/05 15:52:13;;;;;;;;;;;;;;;8.42;100.00;97222.06;4993484;28;19921;-90
2023/11/05 15:54:39;;;;;;;;;;;;;;;8.48;100.00;97232.22;4995712;28;19972;-91
2023/11/05 15:57:07;;;;;;;;;;;;;;;8.50;100.00;97234.75;4978150;28;19949;-90
2023/11/05 15:59:32;;;;;;;;;;;;;;;8.53;100.00;97237.97;4978061;28;20002;-91
2023/11/05 16:02:00;;;;;;;;;;;;;;;8.56;100.00;97251.94;4993289;28;19937;-91
2023/11/05 16:04:26;;;;;;;;;;;;;;;8.59;100.00;97262.25;4994558;28;20526;-90
2023/11/05 16:06:53;;;;;;;;;;;;;;;8.63;100.00;97261.06;4994633;28;20027;-89
2023/11/05 16:09:19;;;;;;;;;;;;;;;8.63;100.00;97259.28;4976909;28;19926;-90
2023/11/05 16:11:46;;;;;;;;;;;;;;;8.66;100.00;97240.56;4977307;28;19926;-90
2023/11/05 16:14:12;;;;;;;;;;;;;;;8.73;100.00;97262.06;4977289;28;20145;-88
2023/11/05 16:16:37;;;;;;;;;;;;;;;8.81;100.00;97314.28;4978552;28;19921;-88
2023/11/05 16:19:10;;;;;;;;;;;;;;;8.82;100.00;97324.75;4995133;28;20015;-90
2023/11/05 16:21:44;;;;;;;;;;;;;;;8.80;100.00;97329.28;4992996;28;19925;-89
2023/11/05 16:24:09;;;;;;;;;;;;;;;8.83;100.00;97325.56;4994336;28;19922;-90
2023/11/05 16:26:45;;;;;;;;;;;;;;;8.85;100.00;97328.94;4991367;28;19922;-91
2023/11/05 16:29:13;;;;;;;;;;;;;;;8.87;100.00;97337.56;4976179;28;19989;-90
2023/11/05 16:31:38;;;;;;;;;;;;;;;8.89;100.00;97347.06;4993599;28;19918;-90
2023/11/05 16:34:06;;;;;;;;;;;;;;;8.14;100.00;97366.56;4994189;28;19948;-89
2023/11/05 16:36:42;;;;;;;;;;;;;;;7.79;100.00;97366.44;4992920;28;19928;-88
2023/11/05 16:39:10;;;;;;;;;;;;;;;7.45;100.00;97379.28;4985139;28;20285;-91
2023/11/05 16:41:35;;;;;;;;;;;;;;;7.27;100.00;97373.50;4992548;28;19926;-88
2023/11/05 16:44:01;;;;;;;;;;;;;;;7.72;100.00;97379.22;4993524;28;19922;-92
2023/11/05 16:46:26;;;;;;;;;;;;;;;7.39;100.00;97380.56;4977022;28;19922;-92
2023/11/05 16:48:52;;;;;;;;;;;;;;;7.25;100.00;97384.13;4976822;28;19921;-90
2023/11/05 16:54:18;;;;;;;;;;;;;;;7.09;100.00;97389.59;4954453;28;19922;-92
2023/11/05 16:56:49;;;;;;;;;;;;;;;6.99;100.00;97391.16;4958076;28;20905;-92
2023/11/05 16:59:19;;;;;;;;;;;;;;;6.96;100.00;97390.53;4975073;28;19917;-89
2023/11/05 17:01:44;;;;;;;;;;;;;;;6.95;100.00;97391.47;4958191;28;20298;-90
2023/11/05 17:04:10;;;;;;;;;;;;;;;6.90;100.00;97407.56;4974406;28;19961;-88
2023/11/05 17:06:41;;;;;;;;;;;;;;;6.76;100.00;97418.97;4974188;28;20016;-92
2023/11/05 17:09:10;;;;;;;;;;;;;;;6.80;100.00;97419.63;4957688;28;19973;-84
2023/11/05 17:11:41;;;;;;;;;;;;;;;6.67;100.00;97423.06;4974938;28;20438;-91
2023/11/05 17:14:07;;;;;;;;;;;;;;;6.64;100.00;97428.53;4955904;28;20273;-89
2023/11/05 17:16:32;;;;;;;;;;;;;;;6.57;100.00;97434.28;4973849;28;19930;-85
2023/11/05 17:18:58;;;;;;;;;;;;;;;6.53;100.00;97446.78;4975075;28;19922;-88
2023/11/05 17:21:23;;;;;;;;;;;;;;;6.53;100.00;97452.88;4957654;28;19926;-87
2023/11/05 17:24:09;;;;;;;;;;;;;;;6.51;100.00;97464.44;4956212;28;19922;-92
2023/11/05 17:26:36;;;;;;;;;;;;;;;6.47;100.00;97476.94;4973520;28;19929;-90
2023/11/05 17:29:02;;;;;;;;;;;;;;;6.38;100.00;97482.78;4974108;28;19922;-89
2023/11/05 17:31:35;;;;;;;;;;;;;;;6.40;100.00;97491.44;4973844;28;19933;-93
2023/11/05 17:34:02;;;;;;;;;;;;;;;6.39;100.00;97500.25;4975122;28;19918;-88
2023/11/05 17:36:27;;;;;;;;;;;;;;;6.31;100.00;97502.53;4973738;28;19928;-89
2023/11/05 17:38:53;;;;;;;;;;;;;;;6.33;100.00;97505.91;4987552;22;20024;-90
2023/11/05 17:41:18;;;;;;;;;;;;;;;6.23;100.00;97518.78;4993041;28;19944;-89
2023/11/05 17:43:44;;;;;;;;;;;;;;;6.34;100.00;97521.59;5012716;28;19928;-89
2023/11/05 17:46:31;;;;;;;;;;;;;;;6.31;100.00;97524.41;4994297;28;19921;-92
2023/11/05 17:49:03;;;;;;;;;;;;;;;6.23;100.00;97529.28;5012022;28;19922;-91
2023/11/05 17:51:28;;;;;;;;;;;;;;;6.22;100.00;97530.22;4984974;28;19932;-92
2023/11/05 17:53:53;;;;;;;;;;;;;;;6.16;100.00;97520.94;5009917;28;20016;-89
2023/11/05 17:56:19;;;;;;;;;;;;;;;6.13;100.00;97536.06;5013813;28;20270;-88
2023/11/05 17:58:44;;;;;;;;;;;;;;;6.12;100.00;97537.00;4995506;28;19956;-90
2023/11/05 18:01:13;;;;;;;;;;;;;;;6.12;100.00;97542.25;5010028;28;20284;-90
2023/11/05 18:03:39;;;;;;;;;;;;;;;6.03;100.00;97540.16;4975727;28;20300;-88
2023/11/05 18:06:04;;;;;;;;;;;;;;;6.04;100.00;97541.88;4974206;28;19928;-90
2023/11/05 18:08:38;;;;;;;;;;;;;;;6.11;100.00;97545.81;4974916;28;19921;-93
2023/11/05 18:11:10;;;;;;;;;;;;;;;6.09;100.00;97547.69;4992266;28;19926;-91
2023/11/05 18:14:01;;;;;;;;;;;;;;;6.06;100.00;97553.13;4989893;28;19918;-92
2023/11/05 18:16:29;;;;;;;;;;;;;;;8.37;100.00;97559.34;4964793;28;19926;-92
2023/11/05 18:18:55;;;;;;;;;;;;;;;6.50;100.00;97573.25;4974469;28;19928;-91
2023/11/05 18:21:23;;;;;;;;;;;;;;;6.15;100.00;97573.63;4975633;28;19926;-91
2023/11/05 18:35:59;;;;;;;;;;;;;;;5.91;100.00;97600.38;4931156;28;19954;-88
2023/11/05 18:38:24;;;;;;;;;;;;;;;5.91;100.00;97596.94;4992062;28;20018;-90
2023/11/05 18:40:52;;;;;;;;;;;;;;;6.00;100.00;97601.69;4992691;28;19965;-85
2023/11/05 18:46:13;;;;;;;;;;;;;;;5.95;100.00;97617.69;4990746;28;19922;-86
2023/11/05 18:48:53;;;;;;;;;;;;;;;5.96;100.00;97618.53;4990209;28;19965;-91
2023/11/05 18:51:19;;;;;;;;;;;;;;;5.96;100.00;97627.28;4973960;28;19968;-90
2023/11/05 18:53:44;;;;;;;;;;;;;;;8.36;100.00;97642.13;4969871;28;20016;-93
2023/11/05 18:56:12;;;;;;;;;;;;;;;7.07;100.00;97648.72;4990309;28;20008;-91
2023/11/05 19:02:27;;;;;;;;;;;;;;;6.15;100.00;97647.25;4860824;29;19939;-90
2023/11/05 19:08:27;;;;;;;;;;;;;;;5.81;100.00;97654.44;4943752;29;19941;-94
2023/11/05 19:11:16;;;;;;;;;;;;;;;5.78;100.00;97662.50;4939474;29;20462;-95
2023/11/05 19:19:41;;;;;;;;;;;;;;;5.76;100.00;97680.09;4889381;29;20035;-90
2023/11/05 19:25:40;;;;;;;;;;;;;;;6.88;100.00;97702.50;4885026;29;19934;-93
2023/11/05 19:48:44;;;;;;;;;;;;;;;7.68;100.00;97738.84;5004011;28;19917;-91
2023/11/05 19:54:48;;;;;;;;;;;;;;;7.76;100.00;97747.09;4952238;28;19941;-92
2023/11/05 20:13:28;;;;;;;;;;;;;;;7.63;100.00;97815.56;4971065;23;19925;-91
2023/11/05 20:34:45;;;;;;;;;;;;;;;7.64;100.00;97835.72;4850706;23;19929;-86
2023/11/05 20:37:10;;;;;;;;;;;;;;;7.86;100.00;97836.19;5010683;23;19933;-91
2023/11/05 20:39:39;;;;;;;;;;;;;;;7.94;100.00;97834.72;5004363;28;19917;-95
2023/11/05 20:58:15;;;;;;;;;;;;;;;8.65;100.00;97867.19;4707025;23;19934;-95
2023/11/05 21:01:18;;;;;;;;;;;;;;;;;;;;;
2023/11/05 21:13:35;;;;;;;;;;;;;;;7.22;100.00;97902.41;4752497;30;19922;-95
2023/11/05 21:16:04;;;;;;;;;;;;;;;7.03;100.00;97892.09;4804382;29;19925;-94
2023/11/05 21:48:30;;;;;;;;;;;;;;;6.44;100.00;97928.78;4811791;29;19925;-96
2023/11/05 22:46:59;;;;;;;;;;;;;;;;;;;;;
